createdAt,value
2023-05-10T00:00:47.776Z,7.96
2023-05-10T00:03:14.998Z,7.86
2023-05-10T00:05:42.052Z,8.14
2023-05-10T00:08:09.230Z,8.07
2023-05-10T00:10:37.288Z,8.26
2023-05-10T00:13:04.596Z,8.43
2023-05-10T00:15:31.749Z,8.46
2023-05-10T00:17:59.129Z,8.51
2023-05-10T00:20:26.245Z,8.43
2023-05-10T00:22:53.302Z,8.44
2023-05-10T00:25:21.749Z,7.96
2023-05-10T00:27:48.967Z,8.29
2023-05-10T00:30:16.297Z,8.42
2023-05-10T00:32:44.598Z,8.38
2023-05-10T00:35:12.023Z,8.26
2023-05-10T00:37:39.022Z,8.12
2023-05-10T00:40:07.525Z,8.00
2023-05-10T00:42:34.802Z,8.04
2023-05-10T00:45:02.451Z,7.84
2023-05-10T00:47:30.981Z,7.92
2023-05-10T00:49:58.422Z,7.79
2023-05-10T00:52:27.070Z,7.84
2023-05-10T00:54:55.126Z,7.57
2023-05-10T00:57:22.733Z,7.63
2023-05-10T00:59:50.197Z,7.20
2023-05-10T01:02:17.282Z,7.66
2023-05-10T01:04:44.999Z,8.27
2023-05-10T01:07:12.249Z,8.07
2023-05-10T01:09:39.555Z,7.95
2023-05-10T01:12:08.457Z,8.37
2023-05-10T01:14:37.380Z,8.67
2023-05-10T01:17:06.548Z,8.53
2023-05-10T01:19:36.129Z,8.26
2023-05-10T01:22:03.020Z,8.26
2023-05-10T01:25:01.629Z,7.88
2023-05-10T01:27:53.236Z,7.41
2023-05-10T01:30:26.152Z,7.20
2023-05-10T01:33:16.725Z,7.47
2023-05-10T01:35:56.801Z,8.10
2023-05-10T01:38:30.055Z,8.47
2023-05-10T01:41:21.234Z,8.42
2023-05-10T01:44:10.195Z,8.73
2023-05-10T01:46:38.992Z,8.82
2023-05-10T01:49:38.135Z,8.89
2023-05-10T01:52:13.452Z,8.87
2023-05-10T01:54:45.873Z,8.79
2023-05-10T01:57:15.658Z,8.73
2023-05-10T01:59:46.670Z,8.49
2023-05-10T02:02:15.273Z,8.41
2023-05-10T02:04:43.418Z,8.27
2023-05-10T02:07:11.694Z,8.69
2023-05-10T02:09:39.827Z,8.48
2023-05-10T02:12:09.495Z,8.08
2023-05-10T02:14:38.274Z,7.91
2023-05-10T02:17:07.873Z,8.08
2023-05-10T02:19:37.299Z,8.15
2023-05-10T02:22:05.119Z,7.97
2023-05-10T02:24:34.666Z,7.73
2023-05-10T02:27:04.769Z,7.81
2023-05-10T02:29:33.622Z,7.82
2023-05-10T02:32:01.981Z,7.93
2023-05-10T02:34:29.740Z,7.96
2023-05-10T02:36:57.690Z,8.12
2023-05-10T02:39:25.978Z,8.23
2023-05-10T02:41:54.697Z,8.15
2023-05-10T02:44:23.312Z,8.11
2023-05-10T02:46:51.000Z,7.95
2023-05-10T02:49:18.249Z,7.73
2023-05-10T02:51:56.650Z,7.65
2023-05-10T02:54:30.912Z,7.62
2023-05-10T02:57:02.875Z,7.72
2023-05-10T02:59:29.946Z,7.82
2023-05-10T03:01:57.053Z,8.07
2023-05-10T03:04:24.138Z,8.19
2023-05-10T03:06:54.222Z,8.38
2023-05-10T03:09:22.231Z,8.44
2023-05-10T03:12:12.820Z,8.49
2023-05-10T03:15:01.257Z,8.63
2023-05-10T03:17:41.440Z,8.66
2023-05-10T03:20:12.787Z,8.83
2023-05-10T03:22:46.861Z,8.79
2023-05-10T03:25:17.832Z,8.26
2023-05-10T03:27:46.341Z,8.30
2023-05-10T03:30:14.674Z,8.57
2023-05-10T03:32:42.425Z,8.91
2023-05-10T03:35:14.464Z,9.06
2023-05-10T03:37:42.363Z,8.97
2023-05-10T03:40:11.272Z,9.44
2023-05-10T03:42:41.145Z,9.33
2023-05-10T03:45:08.965Z,9.68
2023-05-10T03:47:36.221Z,9.69
2023-05-10T03:50:03.621Z,9.86
2023-05-10T03:52:30.708Z,9.80
2023-05-10T03:54:57.707Z,9.80
2023-05-10T03:57:25.136Z,9.51
2023-05-10T03:59:52.399Z,10.03
2023-05-10T04:02:19.437Z,10.26
2023-05-10T04:04:46.460Z,10.46
2023-05-10T04:07:13.686Z,10.54
2023-05-10T04:09:40.843Z,10.79
2023-05-10T04:12:10.178Z,11.00
2023-05-10T04:14:38.370Z,11.48
2023-05-10T04:17:05.705Z,11.64
2023-05-10T04:19:33.070Z,11.75
2023-05-10T04:22:00.133Z,11.82
2023-05-10T04:24:27.198Z,11.79
2023-05-10T04:26:57.789Z,12.34
2023-05-10T04:29:25.099Z,12.77
2023-05-10T04:31:52.169Z,12.80
2023-05-10T04:34:19.810Z,12.88
2023-05-10T04:36:46.777Z,12.75
2023-05-10T04:39:14.849Z,13.16
2023-05-10T04:41:41.834Z,12.83
2023-05-10T04:44:08.916Z,13.36
2023-05-10T04:46:36.009Z,13.42
2023-05-10T04:49:03.352Z,13.25
2023-05-10T04:51:30.305Z,13.21
2023-05-10T04:54:06.243Z,13.41
2023-05-10T04:56:34.450Z,13.24
2023-05-10T04:59:01.582Z,12.07
2023-05-10T05:01:28.680Z,11.78
2023-05-10T05:03:55.905Z,12.14
2023-05-10T05:06:23.133Z,12.25
2023-05-10T05:08:50.792Z,12.29
2023-05-10T05:11:18.742Z,12.72
2023-05-10T05:13:45.994Z,12.87
2023-05-10T05:16:13.061Z,13.16
2023-05-10T05:18:40.230Z,13.40
2023-05-10T05:21:20.858Z,13.00
2023-05-10T05:23:48.688Z,12.98
2023-05-10T05:26:16.281Z,13.30
2023-05-10T05:28:43.281Z,13.50
2023-05-10T05:31:10.452Z,12.61
2023-05-10T05:33:37.919Z,12.86
2023-05-10T05:36:06.576Z,13.12
2023-05-10T05:38:33.671Z,13.17
2023-05-10T05:41:00.787Z,13.61
2023-05-10T05:43:27.818Z,13.83
2023-05-10T05:45:55.232Z,13.97
2023-05-10T05:48:22.815Z,13.52
2023-05-10T05:50:49.824Z,13.97
2023-05-10T05:53:16.963Z,13.63
2023-05-10T05:56:10.771Z,13.69
2023-05-10T05:58:37.765Z,13.62
2023-05-10T06:01:04.806Z,14.03
2023-05-10T06:03:31.911Z,14.55
2023-05-10T06:05:59.039Z,14.48
2023-05-10T06:08:26.852Z,14.32
2023-05-10T06:10:53.837Z,14.11
2023-05-10T06:13:20.871Z,14.16
2023-05-10T06:15:47.899Z,13.52
2023-05-10T06:18:14.935Z,14.09
2023-05-10T06:20:44.040Z,13.97
2023-05-10T06:23:11.057Z,14.36
2023-05-10T06:25:38.084Z,13.81
2023-05-10T06:28:05.104Z,14.20
2023-05-10T06:30:32.160Z,14.21
2023-05-10T06:32:59.250Z,14.35
2023-05-10T06:35:26.305Z,15.05
2023-05-10T06:37:54.062Z,14.98
2023-05-10T06:40:21.384Z,15.20
2023-05-10T06:42:49.069Z,14.80
2023-05-10T06:45:17.306Z,15.11
2023-05-10T06:47:44.971Z,15.66
2023-05-10T06:50:14.897Z,15.40
2023-05-10T06:52:41.982Z,15.33
2023-05-10T06:55:09.938Z,15.60
2023-05-10T06:57:37.000Z,15.28
2023-05-10T07:00:08.089Z,15.19
2023-05-10T07:02:35.235Z,14.78
2023-05-10T07:05:03.674Z,15.07
2023-05-10T07:07:30.941Z,15.57
2023-05-10T07:09:58.803Z,15.34
2023-05-10T07:12:26.462Z,15.05
2023-05-10T07:14:53.650Z,15.92
2023-05-10T07:17:21.142Z,16.40
2023-05-10T07:19:48.221Z,16.35
2023-05-10T07:22:16.757Z,17.05
2023-05-10T07:24:43.933Z,16.58
2023-05-10T07:27:11.077Z,16.04
2023-05-10T07:29:38.641Z,16.14
2023-05-10T07:32:06.978Z,16.56
2023-05-10T07:34:34.097Z,17.00
2023-05-10T07:37:02.184Z,15.94
2023-05-10T07:39:29.361Z,14.75
2023-05-10T07:41:57.050Z,14.88
2023-05-10T07:44:24.331Z,14.86
2023-05-10T07:46:51.773Z,15.01
2023-05-10T07:49:18.956Z,15.19
2023-05-10T07:51:46.339Z,15.32
2023-05-10T07:54:13.855Z,14.76
2023-05-10T07:56:45.856Z,14.62
2023-05-10T07:59:16.814Z,14.82
2023-05-10T08:01:44.358Z,14.91
2023-05-10T08:04:11.643Z,14.74
2023-05-10T08:06:38.904Z,14.63
2023-05-10T08:09:06.092Z,14.96
2023-05-10T08:11:34.859Z,14.72
2023-05-10T08:14:02.398Z,15.34
2023-05-10T08:16:30.096Z,15.78
2023-05-10T08:18:57.410Z,15.14
2023-05-10T08:21:24.683Z,15.15
2023-05-10T08:23:51.837Z,14.96
2023-05-10T08:26:18.964Z,14.29
2023-05-10T08:28:46.171Z,14.63
2023-05-10T08:31:13.389Z,14.46
2023-05-10T08:33:42.143Z,14.22
2023-05-10T08:36:10.203Z,14.31
2023-05-10T08:38:38.980Z,15.27
2023-05-10T08:41:07.242Z,15.04
2023-05-10T08:43:37.103Z,14.99
2023-05-10T08:46:08.939Z,14.84
2023-05-10T08:48:36.650Z,15.20
2023-05-10T08:51:05.050Z,15.17
2023-05-10T08:53:33.752Z,14.55
2023-05-10T08:56:02.280Z,13.76
2023-05-10T08:58:29.538Z,13.80
2023-05-10T09:00:58.244Z,13.66
2023-05-10T09:03:25.390Z,13.57
2023-05-10T09:05:52.760Z,13.66
2023-05-10T09:08:21.176Z,13.82
2023-05-10T09:10:49.649Z,13.82
2023-05-10T09:13:16.833Z,14.01
2023-05-10T09:15:46.387Z,15.98
2023-05-10T09:18:14.082Z,15.75
2023-05-10T09:20:42.073Z,14.60
2023-05-10T09:23:09.895Z,14.33
2023-05-10T09:25:39.746Z,15.18
2023-05-10T09:28:10.835Z,14.95
2023-05-10T09:30:38.158Z,14.66
2023-05-10T09:33:05.403Z,14.62
2023-05-10T09:35:34.577Z,15.28
2023-05-10T09:38:05.318Z,15.99
2023-05-10T09:40:33.952Z,16.44
2023-05-10T09:43:02.065Z,15.92
2023-05-10T09:45:36.207Z,16.24
2023-05-10T09:48:05.631Z,15.76
2023-05-10T09:50:32.893Z,15.69
2023-05-10T09:53:02.237Z,16.51
2023-05-10T09:55:41.653Z,17.32
2023-05-10T09:58:12.027Z,15.07
2023-05-10T10:00:41.370Z,14.02
2023-05-10T10:03:15.420Z,14.61
2023-05-10T10:05:44.393Z,14.27
2023-05-10T10:08:13.270Z,14.67
2023-05-10T10:10:46.436Z,15.51
2023-05-10T10:13:14.104Z,15.67
2023-05-10T10:15:41.789Z,14.66
2023-05-10T10:18:13.531Z,15.25
2023-05-10T10:20:41.500Z,15.11
2023-05-10T10:23:09.774Z,15.86
2023-05-10T10:25:37.163Z,15.73
2023-05-10T10:28:23.297Z,17.17
2023-05-10T10:30:54.774Z,15.98
2023-05-10T10:33:58.128Z,16.98
2023-05-10T10:36:28.187Z,16.20
2023-05-10T10:38:59.134Z,15.83
2023-05-10T10:41:33.402Z,15.78
2023-05-10T10:44:31.863Z,16.18
2023-05-10T10:47:24.312Z,16.28
2023-05-10T10:49:52.969Z,15.99
2023-05-10T10:52:34.580Z,15.05
2023-05-10T10:55:12.078Z,14.74
2023-05-10T10:57:42.561Z,13.68
2023-05-10T11:00:26.924Z,13.76
2023-05-10T11:03:00.461Z,14.84
2023-05-10T11:06:04.361Z,15.50
2023-05-10T11:08:34.039Z,15.46
2023-05-10T11:11:08.148Z,14.79
2023-05-10T11:13:48.434Z,14.34
2023-05-10T11:16:22.551Z,14.87
2023-05-10T11:18:55.558Z,14.56
2023-05-10T11:21:23.018Z,14.47
2023-05-10T11:23:53.305Z,14.57
2023-05-10T11:26:21.760Z,14.96
2023-05-10T11:28:50.134Z,14.61
2023-05-10T11:31:21.481Z,15.26
2023-05-10T11:33:53.278Z,14.97
2023-05-10T11:36:22.693Z,15.70
2023-05-10T11:38:50.540Z,15.21
2023-05-10T11:41:20.176Z,14.66
2023-05-10T11:43:50.476Z,14.40
2023-05-10T11:46:21.511Z,14.61
2023-05-10T11:48:53.840Z,15.05
2023-05-10T11:51:25.145Z,14.43
2023-05-10T11:53:54.826Z,15.17
2023-05-10T11:56:22.022Z,16.06
2023-05-10T11:58:58.092Z,14.51
2023-05-10T12:01:29.406Z,14.96
2023-05-10T12:04:00.986Z,15.51
2023-05-10T12:06:35.001Z,16.20
2023-05-10T12:09:07.437Z,17.08
2023-05-10T12:11:40.162Z,16.33
2023-05-10T12:14:10.443Z,15.85
2023-05-10T12:16:37.693Z,15.28
2023-05-10T12:19:04.990Z,15.30
2023-05-10T12:21:32.439Z,15.39
2023-05-10T12:24:08.705Z,14.93
2023-05-10T12:26:36.643Z,14.70
2023-05-10T12:29:17.138Z,15.57
2023-05-10T12:31:58.018Z,15.51
2023-05-10T12:34:37.254Z,16.07
2023-05-10T12:37:04.924Z,15.96
2023-05-10T12:39:43.461Z,15.83
2023-05-10T12:42:11.628Z,16.05
2023-05-10T12:44:41.007Z,14.55
2023-05-10T12:47:08.472Z,14.84
2023-05-10T12:49:35.605Z,14.46
2023-05-10T12:52:02.895Z,14.53
2023-05-10T12:54:29.956Z,14.35
2023-05-10T12:56:57.057Z,14.26
2023-05-10T12:59:24.173Z,14.18
2023-05-10T13:01:51.344Z,14.32
2023-05-10T13:04:18.488Z,14.03
2023-05-10T13:06:45.727Z,14.15
2023-05-10T13:09:13.158Z,14.02
2023-05-10T13:11:40.604Z,14.01
2023-05-10T13:14:08.109Z,14.01
2023-05-10T13:16:35.188Z,14.21
2023-05-10T13:19:02.620Z,13.82
2023-05-10T13:21:29.830Z,14.13
2023-05-10T13:23:56.870Z,13.70
2023-05-10T13:26:23.964Z,13.71
2023-05-10T13:28:52.872Z,13.76
2023-05-10T13:31:20.094Z,14.07
2023-05-10T13:33:47.344Z,13.71
2023-05-10T13:36:14.468Z,14.14
2023-05-10T13:38:41.833Z,13.73
2023-05-10T13:41:09.026Z,13.62
2023-05-10T13:43:37.147Z,13.39
2023-05-10T13:46:04.377Z,13.80
2023-05-10T13:48:31.571Z,14.09
2023-05-10T13:50:58.683Z,14.02
2023-05-10T13:53:25.923Z,13.80
2023-05-10T13:56:11.315Z,13.69
2023-05-10T13:58:38.467Z,13.39
2023-05-10T14:01:05.994Z,13.23
2023-05-10T14:03:33.912Z,13.27
2023-05-10T14:06:01.262Z,13.43
2023-05-10T14:08:28.426Z,13.27
2023-05-10T14:10:57.369Z,13.27
2023-05-10T14:13:24.953Z,13.22
2023-05-10T14:15:52.536Z,13.11
2023-05-10T14:18:19.767Z,13.16
2023-05-10T14:20:47.053Z,13.34
2023-05-10T14:23:14.149Z,13.49
2023-05-10T14:25:41.998Z,13.30
2023-05-10T14:28:09.146Z,13.17
2023-05-10T14:30:36.474Z,13.27
2023-05-10T14:33:04.117Z,13.23
2023-05-10T14:35:34.259Z,13.30
2023-05-10T14:38:02.805Z,13.18
2023-05-10T14:40:30.446Z,13.10
2023-05-10T14:42:58.015Z,13.11
2023-05-10T14:45:25.232Z,12.98
2023-05-10T14:47:52.544Z,12.90
2023-05-10T14:50:35.325Z,12.95
2023-05-10T14:53:03.486Z,13.04
2023-05-10T14:55:31.149Z,13.20
2023-05-10T14:57:59.412Z,13.41
2023-05-10T15:00:26.928Z,13.52
2023-05-10T15:02:54.349Z,12.92
2023-05-10T15:05:22.104Z,13.28
2023-05-10T15:07:49.812Z,13.56
2023-05-10T15:10:17.439Z,13.26
2023-05-10T15:12:44.532Z,12.83
2023-05-10T15:15:11.686Z,12.91
2023-05-10T15:17:38.826Z,13.11
2023-05-10T15:20:06.623Z,12.79
2023-05-10T15:22:34.447Z,12.67
2023-05-10T15:25:01.808Z,13.42
2023-05-10T15:27:28.966Z,13.49
2023-05-10T15:29:56.391Z,12.92
2023-05-10T15:32:23.514Z,12.60
2023-05-10T15:34:50.601Z,12.45
2023-05-10T15:37:17.823Z,12.37
2023-05-10T15:39:45.527Z,12.57
2023-05-10T15:42:13.560Z,12.29
2023-05-10T15:44:40.966Z,12.38
2023-05-10T15:47:08.075Z,12.26
2023-05-10T15:49:35.240Z,12.44
2023-05-10T15:52:02.343Z,12.74
2023-05-10T15:54:29.580Z,12.33
2023-05-10T15:56:56.992Z,12.01
2023-05-10T15:59:24.117Z,11.87
2023-05-10T16:01:52.155Z,11.85
2023-05-10T16:04:19.277Z,11.74
2023-05-10T16:06:46.400Z,11.86
2023-05-10T16:09:16.523Z,11.79
2023-05-10T16:11:44.276Z,11.80
2023-05-10T16:14:11.350Z,11.98
2023-05-10T16:16:38.520Z,12.16
2023-05-10T16:19:05.826Z,11.80
2023-05-10T16:21:33.516Z,11.95
2023-05-10T16:24:01.208Z,11.89
2023-05-10T16:26:28.337Z,11.68
2023-05-10T16:28:55.502Z,11.50
2023-05-10T16:31:23.405Z,11.62
2023-05-10T16:33:50.585Z,11.59
2023-05-10T16:36:17.617Z,11.30
2023-05-10T16:38:44.762Z,11.56
2023-05-10T16:41:11.917Z,11.35
2023-05-10T16:43:39.047Z,11.33
2023-05-10T16:46:11.529Z,11.20
2023-05-10T16:48:38.941Z,11.21
2023-05-10T16:51:06.057Z,11.58
2023-05-10T16:53:33.160Z,11.82
2023-05-10T16:56:00.291Z,11.83
2023-05-10T16:58:27.400Z,11.66
2023-05-10T17:00:54.498Z,11.63
2023-05-10T17:03:21.659Z,11.26
2023-05-10T17:05:48.778Z,11.08
2023-05-10T17:08:16.645Z,10.90
2023-05-10T17:10:43.916Z,10.91
2023-05-10T17:13:11.187Z,10.83
2023-05-10T17:15:39.444Z,11.27
2023-05-10T17:18:07.630Z,11.68
2023-05-10T17:20:35.024Z,11.53
2023-05-10T17:23:03.441Z,11.45
2023-05-10T17:25:30.826Z,11.64
2023-05-10T17:27:57.919Z,11.63
2023-05-10T17:30:28.354Z,11.63
2023-05-10T17:32:55.747Z,11.08
2023-05-10T17:35:22.873Z,11.14
2023-05-10T17:37:49.920Z,11.50
2023-05-10T17:40:17.316Z,11.55
2023-05-10T17:42:44.933Z,11.49
2023-05-10T17:45:12.193Z,11.38
2023-05-10T17:47:39.324Z,11.30
2023-05-10T17:50:07.250Z,11.49
2023-05-10T17:52:34.309Z,11.71
2023-05-10T17:55:01.718Z,11.90
2023-05-10T17:57:28.854Z,11.82
2023-05-10T17:59:56.064Z,11.75
2023-05-10T18:02:23.283Z,11.80
2023-05-10T18:04:50.539Z,11.84
2023-05-10T18:07:17.782Z,12.06
2023-05-10T18:09:45.310Z,12.26
2023-05-10T18:12:12.556Z,12.20
2023-05-10T18:14:41.466Z,11.72
2023-05-10T18:17:10.154Z,11.93
2023-05-10T18:19:37.425Z,11.90
2023-05-10T18:22:05.337Z,12.09
2023-05-10T18:27:03.563Z,12.37
2023-05-10T18:29:30.689Z,12.27
2023-05-10T18:31:57.784Z,12.26
2023-05-10T18:34:24.974Z,11.73
2023-05-10T18:36:52.564Z,12.05
2023-05-10T18:39:19.870Z,12.00
2023-05-10T18:41:47.026Z,11.77
2023-05-10T18:44:14.665Z,12.08
2023-05-10T18:46:42.682Z,12.13
2023-05-10T18:49:09.902Z,12.13
2023-05-10T18:51:36.953Z,12.17
2023-05-10T18:54:04.649Z,11.92
2023-05-10T18:56:31.772Z,11.90
2023-05-10T18:58:59.078Z,12.17
2023-05-10T19:01:26.255Z,12.13
2023-05-10T19:03:53.382Z,12.26
2023-05-10T19:06:20.957Z,12.00
2023-05-10T19:08:48.139Z,11.97
2023-05-10T19:11:15.737Z,11.92
2023-05-10T19:13:42.986Z,11.62
2023-05-10T19:16:16.681Z,11.56
2023-05-10T19:18:45.218Z,11.45
2023-05-10T19:21:13.901Z,11.35
2023-05-10T19:23:42.089Z,11.33
2023-05-10T19:26:11.105Z,11.63
2023-05-10T19:28:38.690Z,11.76
2023-05-10T19:31:05.776Z,11.74
2023-05-10T19:33:33.019Z,11.30
2023-05-10T19:36:00.095Z,11.41
2023-05-10T19:38:27.278Z,11.11
2023-05-10T19:41:00.486Z,11.05
2023-05-10T19:43:29.569Z,10.89
2023-05-10T19:46:01.978Z,10.83
2023-05-10T19:48:29.480Z,10.88
2023-05-10T19:51:04.830Z,10.96
2023-05-10T19:53:33.563Z,10.73
2023-05-10T19:56:07.297Z,10.72
2023-05-10T19:58:34.719Z,10.89
2023-05-10T20:01:01.930Z,10.87
2023-05-10T20:03:29.328Z,11.13
2023-05-10T20:05:56.543Z,10.87
2023-05-10T20:08:23.650Z,10.99
2023-05-10T20:10:50.908Z,10.73
2023-05-10T20:13:18.153Z,10.81
2023-05-10T20:15:46.472Z,10.83
2023-05-10T20:18:13.643Z,10.66
2023-05-10T20:20:40.898Z,10.68
2023-05-10T20:23:07.971Z,10.63
2023-05-10T20:25:35.656Z,10.45
2023-05-10T20:28:03.164Z,10.38
2023-05-10T20:30:30.241Z,10.34
2023-05-10T20:32:57.428Z,10.14
2023-05-10T20:35:24.599Z,10.25
2023-05-10T20:37:51.693Z,10.26
2023-05-10T20:40:19.093Z,10.60
2023-05-10T20:42:46.381Z,10.54
2023-05-10T20:45:13.455Z,10.43
2023-05-10T20:47:40.651Z,10.32
2023-05-10T20:50:08.226Z,10.43
2023-05-10T20:52:35.289Z,10.54
2023-05-10T20:55:02.366Z,10.21
2023-05-10T20:57:29.449Z,10.36
2023-05-10T20:59:57.606Z,10.36
2023-05-10T21:02:24.715Z,10.06
2023-05-10T21:04:52.098Z,10.04
2023-05-10T21:07:19.255Z,10.38
2023-05-10T21:09:46.530Z,10.34
2023-05-10T21:12:13.798Z,10.37
2023-05-10T21:14:42.444Z,10.14
2023-05-10T21:17:09.722Z,10.19
2023-05-10T21:19:36.845Z,10.18
2023-05-10T21:22:04.004Z,10.19
2023-05-10T21:24:31.125Z,10.31
2023-05-10T21:26:58.217Z,10.34
2023-05-10T21:29:25.272Z,10.06
2023-05-10T21:31:52.386Z,10.24
2023-05-10T21:34:19.472Z,10.42
2023-05-10T21:36:46.549Z,10.49
2023-05-10T21:39:13.764Z,10.27
2023-05-10T21:41:41.052Z,10.32
2023-05-10T21:44:08.104Z,10.35
2023-05-10T21:46:35.172Z,10.47
2023-05-10T21:49:02.291Z,10.36
2023-05-10T21:51:29.370Z,10.36
2023-05-10T21:53:56.507Z,10.58
2023-05-10T21:56:23.723Z,10.72
2023-05-10T21:58:50.957Z,10.54
2023-05-10T22:01:18.211Z,10.52
2023-05-10T22:03:45.432Z,10.51
2023-05-10T22:06:12.666Z,10.52
2023-05-10T22:08:39.831Z,10.27
2023-05-10T22:11:06.908Z,10.39
2023-05-10T22:13:34.043Z,10.47
2023-05-10T22:16:01.154Z,10.40
2023-05-10T22:18:28.270Z,10.46
2023-05-10T22:20:55.349Z,10.80
2023-05-10T22:23:22.593Z,10.86
2023-05-10T22:25:49.696Z,10.60
2023-05-10T22:28:16.860Z,9.89
2023-05-10T22:30:44.163Z,9.84
2023-05-10T22:33:11.259Z,9.66
2023-05-10T22:35:38.377Z,9.97
2023-05-10T22:38:05.604Z,10.19
2023-05-10T22:40:32.870Z,10.05
2023-05-10T22:42:59.983Z,9.91
2023-05-10T22:45:27.406Z,9.85
2023-05-10T22:47:54.646Z,10.12
2023-05-10T22:50:21.860Z,10.22
2023-05-10T22:52:48.956Z,10.09
2023-05-10T22:55:16.219Z,10.14
2023-05-10T22:57:43.431Z,10.33
2023-05-10T23:00:11.043Z,10.37
2023-05-10T23:02:38.221Z,10.19
2023-05-10T23:05:05.955Z,10.33
2023-05-10T23:07:33.241Z,10.50
2023-05-10T23:10:00.275Z,10.69
2023-05-10T23:12:27.359Z,10.90
2023-05-10T23:14:54.923Z,10.84
2023-05-10T23:17:22.219Z,10.81
2023-05-10T23:19:49.250Z,10.58
2023-05-10T23:22:16.327Z,10.77
2023-05-10T23:24:43.491Z,10.70
2023-05-10T23:27:11.465Z,10.72
2023-05-10T23:29:38.481Z,10.53
2023-05-10T23:32:05.819Z,10.43
2023-05-10T23:34:32.900Z,10.17
2023-05-10T23:37:00.029Z,10.07
2023-05-10T23:39:27.068Z,10.00
2023-05-10T23:41:54.204Z,10.13
2023-05-10T23:44:21.247Z,10.55
2023-05-10T23:46:48.272Z,10.75
2023-05-10T23:49:15.415Z,10.79
2023-05-10T23:51:42.446Z,10.79
2023-05-10T23:54:09.646Z,10.39
2023-05-10T23:56:36.726Z,10.08
2023-05-10T23:59:05.991Z,10.09
